• vieta
  • image
  • image
  • image
mod_vvisit_countermod_vvisit_countermod_vvisit_countermod_vvisit_countermod_vvisit_countermod_vvisit_counter
mod_vvisit_counterŠiandien153
mod_vvisit_counterVakar683
mod_vvisit_counterŠią savaitę2974
mod_vvisit_counterPraėjusią savaitę4954
mod_vvisit_counterŠį mėnesį13745
mod_vvisit_counterPraėjusį mėnesį17663
mod_vvisit_counterViso738637

Mes turime: 60 svečius, 3 bots online
Jūsų IP: 23.20.13.165
 , 
Šiandien: Rugs 22, 2017
Oro uostas / Naujienos / 2015 Sausis

2015 Sausis

Š.m. sausio 20 d. tarptautiniame Šiaulių oro uoste apsilankė Šiaulių universiteto Verslo administravimo studijų programos logistikos valdymo specializacijos 4 kurso studentai lydimi Vadybos katedros dėstytojos lekt. Inetos Beniušienės. Studentai stebėjo Izraelio aviakompanijos „CAL Cargo Airlines“ orlaivio Boeing 747-400 aptarnavimo procesą bei iš arčiau susipažino su antžeminių paslaugų aptarnavimo specifika.

 

Studentų atsiliepimus ir įspūdžius skaitykite čia:

http://www.su.lt/smf/naujienos/16053-tarptautiniame-iauli-oro-uoste

Šiandien

Penktadienis, 22 Rugsėjis 2017

Orų prognozė

Šiauliai °C
   

Orų prognozė aviacijai

[source: ADDS]
METAR
EYSA 220220Z 06004KT 350V120 9999 OVC005 12/11 Q1015 YLO1 TEMPO OVC004 YLO2 =
TAF
TAF EYSA 220200Z 2203/2212 06010KT 7000 SCT005 OVC020 TEMPO 2203/2208 3000 SHRA BKN005 BKN015CB =
SR / SS: 04:14 / 16:26 UTC (EYSA 2017-09-22)

Paieška

Lankytojai

Mes turime 63 svečius online

tic logo lt